Time;durP1;ratioP1;P1;durP2;ratioP2;P2;SDS_P1;SDS_P2;PMS_P1;PMS_P2;Temp;Humidity;BMP_temperature;BMP_pressure;BME280_temperature;BME280_humidity;BME280_pressure;Samples;Min_cycle;Max_cycle;Signal;HPM_P1;HPM_P2
2023/03/29 00:02:02;;;;;;;10.33;5.87;;;;;;;-0.38;85.06;94973.44;6299091;22;20168;-77
2023/03/29 00:04:29;;;;;;;7.80;5.60;;;;;;;-0.46;85.01;94971.59;6300019;22;20183;-78
2023/03/29 00:06:55;;;;;;;8.77;5.53;;;;;;;-0.34;85.00;94979.84;6299184;22;20221;-78
2023/03/29 00:09:25;;;;;;;9.77;6.10;;;;;;;-0.27;84.53;94976.59;6300326;22;20188;-78
2023/03/29 00:11:52;;;;;;;10.50;5.70;;;;;;;-0.31;84.37;94972.72;6299822;22;20222;-77
2023/03/29 00:14:19;;;;;;;9.67;5.60;;;;;;;-0.36;84.40;94969.00;6299533;22;20171;-79
2023/03/29 00:16:46;;;;;;;7.10;5.20;;;;;;;-0.32;83.90;94965.22;6295502;22;20200;-78
2023/03/29 00:19:13;;;;;;;9.03;5.27;;;;;;;-0.29;83.43;94977.69;6300184;22;20628;-78
2023/03/29 00:21:39;;;;;;;13.33;5.97;;;;;;;-0.35;83.83;94973.16;6303454;22;20172;-77
2023/03/29 00:24:06;;;;;;;8.63;6.30;;;;;;;-0.28;83.15;94974.97;6300794;22;20653;-77
2023/03/29 00:26:34;;;;;;;8.50;6.30;;;;;;;-0.31;83.11;94975.28;6301410;22;20182;-77
2023/03/29 00:29:01;;;;;;;8.30;5.67;;;;;;;-0.55;83.46;94952.06;6300582;22;20193;-78
2023/03/29 00:31:28;;;;;;;8.10;5.60;;;;;;;-0.46;82.83;94970.81;6302896;22;20706;-77
2023/03/29 00:33:55;;;;;;;7.87;5.87;;;;;;;-0.51;82.98;94976.34;6302186;22;20621;-77
2023/03/29 00:36:22;;;;;;;9.47;5.33;;;;;;;-0.45;81.61;94978.31;6300702;22;20200;-77
2023/03/29 00:38:49;;;;;;;10.33;6.00;;;;;;;-0.29;81.41;94981.03;6301310;22;20164;-77
2023/03/29 00:41:16;;;;;;;11.37;5.40;;;;;;;-0.25;80.02;94987.47;6301431;22;20902;-77
2023/03/29 00:43:55;;;;;;;7.43;5.10;;;;;;;-0.40;80.17;94971.03;6303630;22;20171;-77
2023/03/29 00:46:22;;;;;;;11.50;6.03;;;;;;;-0.41;81.24;94977.09;6301622;22;20192;-77
2023/03/29 00:48:51;;;;;;;8.30;6.00;;;;;;;-0.45;80.92;94985.97;6301713;22;20188;-77
2023/03/29 00:51:20;;;;;;;9.67;5.53;;;;;;;-0.36;81.12;94986.88;6300484;22;20191;-77
2023/03/29 00:53:51;;;;;;;7.93;5.87;;;;;;;-0.25;81.27;94986.66;6302263;22;20164;-77
2023/03/29 00:56:23;;;;;;;8.67;5.97;;;;;;;-0.22;81.06;94981.25;6301697;22;20501;-77
2023/03/29 00:58:58;;;;;;;8.23;5.60;;;;;;;-0.34;81.63;94974.75;6300606;22;20560;-78
2023/03/29 01:01:32;;;;;;;9.77;5.60;;;;;;;-0.35;81.56;94979.06;6299751;22;20151;-77
2023/03/29 01:04:03;;;;;;;9.00;6.20;;;;;;;-0.30;81.25;94992.22;6300447;22;20224;-78
2023/03/29 01:06:34;;;;;;;8.23;5.73;;;;;;;-0.42;81.73;94990.78;6301730;22;20542;-77
2023/03/29 01:09:06;;;;;;;6.30;5.33;;;;;;;-0.33;82.38;94994.25;6301978;22;20181;-78
2023/03/29 01:11:39;;;;;;;10.80;6.53;;;;;;;-0.43;82.56;95001.94;6301249;22;20239;-78
2023/03/29 01:14:12;;;;;;;7.47;5.50;;;;;;;-0.54;82.30;94986.81;6301355;22;20623;-78
2023/03/29 01:16:39;;;;;;;6.80;5.73;;;;;;;-0.54;82.55;94996.22;6301322;22;20219;-78
2023/03/29 01:19:09;;;;;;;10.40;6.17;;;;;;;-0.49;82.31;94997.41;6300852;22;20168;-79
2023/03/29 01:21:41;;;;;;;6.97;5.23;;;;;;;-0.45;82.21;95013.25;6301936;22;20156;-78
2023/03/29 01:24:28;;;;;;;6.70;5.40;;;;;;;-0.41;82.26;95005.16;6300241;22;20157;-78
2023/03/29 01:27:04;;;;;;;7.73;5.53;;;;;;;-0.43;82.00;95008.81;6301586;22;20168;-78
2023/03/29 01:29:37;;;;;;;8.57;5.97;;;;;;;-0.45;81.16;95011.50;6301448;22;20203;-78
2023/03/29 01:32:09;;;;;;;8.07;5.97;;;;;;;-0.41;81.01;95014.56;6301445;22;20160;-78
2023/03/29 01:34:43;;;;;;;9.87;5.73;;;;;;;-0.46;81.05;95012.44;6302920;22;20167;-79
2023/03/29 01:37:15;;;;;;;8.93;6.03;;;;;;;-0.42;81.00;95010.41;6301323;22;20521;-79
2023/03/29 01:39:42;;;;;;;9.60;5.30;;;;;;;-0.35;79.83;95014.81;6301584;22;20160;-77
2023/03/29 01:42:31;;;;;;;6.90;5.40;;;;;;;-0.34;79.67;95010.50;6302123;22;20498;-79
2023/03/29 01:45:09;;;;;;;7.97;5.50;;;;;;;-0.32;79.48;95000.97;6301204;22;20173;-79
2023/03/29 01:47:46;;;;;;;6.90;5.40;;;;;;;-0.38;79.67;95007.44;6302818;22;20156;-79
2023/03/29 01:50:18;;;;;;;10.47;5.80;;;;;;;-0.34;79.97;95010.50;6302925;22;20176;-79
2023/03/29 01:52:51;;;;;;;9.30;5.83;;;;;;;-0.33;79.17;95007.00;6300447;22;20161;-79
2023/03/29 01:55:22;;;;;;;9.90;6.57;;;;;;;-0.29;79.36;94993.78;6301029;22;20155;-79
2023/03/29 01:57:52;;;;;;;8.50;6.10;;;;;;;-0.25;79.08;94999.41;6301082;22;20164;-80
2023/03/29 02:00:26;;;;;;;8.20;5.57;;;;;;;-0.17;78.72;95002.84;6301863;22;20183;-77
2023/03/29 02:02:58;;;;;;;12.23;5.77;;;;;;;-0.28;78.34;94989.50;6302208;22;20153;-79
2023/03/29 02:05:27;;;;;;;7.20;5.93;;;;;;;-0.25;78.90;95007.09;6300581;22;21011;-81
2023/03/29 02:07:56;;;;;;;8.47;6.10;;;;;;;-0.29;78.45;95016.78;6299391;22;20180;-78
2023/03/29 02:10:24;;;;;;;9.53;6.07;;;;;;;-0.29;78.78;95006.56;6300216;22;20230;-78
2023/03/29 02:12:51;;;;;;;9.97;6.57;;;;;;;-0.28;78.93;95003.06;6301511;22;20168;-78
2023/03/29 02:15:20;;;;;;;10.67;6.90;;;;;;;-0.22;77.86;95005.06;6299886;22;20160;-78
2023/03/29 02:17:49;;;;;;;7.40;5.87;;;;;;;-0.19;77.62;95007.31;6299322;22;20201;-77
2023/03/29 02:20:21;;;;;;;8.50;6.03;;;;;;;-0.35;78.07;95002.06;6299871;22;20174;-78
2023/03/29 02:22:54;;;;;;;11.83;6.50;;;;;;;-0.35;78.48;95014.00;6298996;22;20167;-78
2023/03/29 02:25:23;;;;;;;8.10;6.50;;;;;;;-0.32;78.37;95016.28;6301373;22;20156;-78
2023/03/29 02:27:51;;;;;;;11.93;6.50;;;;;;;-0.34;77.58;95018.97;6299941;22;20210;-78
2023/03/29 02:30:19;;;;;;;9.30;6.40;;;;;;;-0.30;77.52;95024.59;6300002;22;20533;-78
2023/03/29 02:32:58;;;;;;;8.40;6.60;;;;;;;-0.32;77.60;95019.63;6300654;22;20243;-78
2023/03/29 02:35:33;;;;;;;9.90;6.63;;;;;;;-0.29;77.02;95023.66;6300220;22;20157;-78
2023/03/29 02:38:02;;;;;;;17.30;7.40;;;;;;;-0.26;77.61;95031.81;6302082;22;20823;-78
2023/03/29 02:40:29;;;;;;;9.70;6.87;;;;;;;-0.20;77.46;95038.91;6300257;22;20168;-78
2023/03/29 02:42:59;;;;;;;12.90;6.97;;;;;;;-0.23;77.23;95046.06;6300102;22;20178;-78
2023/03/29 02:45:27;;;;;;;10.33;6.83;;;;;;;-0.29;77.66;95042.28;6300370;22;20203;-78
2023/03/29 02:47:58;;;;;;;8.73;6.50;;;;;;;-0.33;77.55;95042.75;6300743;22;20176;-78
2023/03/29 02:50:29;;;;;;;9.43;6.20;;;;;;;-0.33;77.57;95043.53;6301668;22;20659;-78
2023/03/29 02:53:00;;;;;;;8.77;6.20;;;;;;;-0.29;76.92;95044.84;6299342;22;20381;-77
2023/03/29 02:55:33;;;;;;;8.87;6.37;;;;;;;-0.27;77.43;95047.28;6299399;22;20160;-77
2023/03/29 02:58:02;;;;;;;11.33;6.77;;;;;;;-0.23;77.52;95053.72;6300106;22;20502;-80
2023/03/29 03:00:29;;;;;;;9.87;6.53;;;;;;;-0.19;77.05;95049.91;6301231;22;20169;-78
2023/03/29 03:02:58;;;;;;;8.30;6.20;;;;;;;-0.25;77.66;95056.41;6300876;22;20175;-79
2023/03/29 03:05:25;;;;;;;9.40;5.87;;;;;;;-0.25;78.47;95058.16;6297873;22;20168;-79
2023/03/29 03:07:52;;;;;;;6.70;5.13;;;;;;;-0.26;79.12;95057.34;6298398;22;20164;-79
2023/03/29 03:10:19;;;;;;;8.70;6.17;;;;;;;-0.28;79.70;95059.22;6298458;22;20253;-79
2023/03/29 03:12:45;;;;;;;7.70;5.67;;;;;;;-0.34;80.62;95061.53;6299920;22;20172;-79
2023/03/29 03:15:13;;;;;;;7.63;5.60;;;;;;;-0.35;80.48;95062.50;6298225;22;20183;-79
2023/03/29 03:17:40;;;;;;;8.77;6.17;;;;;;;-0.38;80.29;95057.69;6299988;22;20196;-79
2023/03/29 03:20:12;;;;;;;7.17;5.83;;;;;;;-0.37;80.07;95074.59;6297791;22;20169;-78
2023/03/29 03:22:40;;;;;;;11.43;5.97;;;;;;;-0.38;79.89;95081.47;6299208;22;20154;-78
2023/03/29 03:25:10;;;;;;;8.73;6.20;;;;;;;-0.33;79.76;95086.13;6300045;22;20169;-78
2023/03/29 03:27:37;;;;;;;8.50;6.20;;;;;;;-0.31;79.30;95086.78;6298143;22;20197;-79
2023/03/29 03:30:05;;;;;;;8.37;6.10;;;;;;;-0.32;79.13;95083.47;6298909;22;20566;-79
2023/03/29 03:32:32;;;;;;;8.33;5.90;;;;;;;-0.25;77.96;95092.13;6299172;22;20175;-80
2023/03/29 03:34:59;;;;;;;11.83;6.17;;;;;;;-0.26;78.25;95090.53;6300574;22;20630;-80
2023/03/29 03:37:28;;;;;;;10.30;6.60;;;;;;;-0.27;77.93;95101.69;6298504;22;20709;-80
2023/03/29 03:39:55;;;;;;;11.63;6.27;;;;;;;-0.26;76.51;95095.63;6298365;22;20329;-80
2023/03/29 03:42:22;;;;;;;16.03;6.83;;;;;;;-0.25;76.85;95104.09;6298219;22;20177;-78
2023/03/29 03:44:49;;;;;;;10.53;6.07;;;;;;;-0.32;75.94;95100.53;6299572;22;20454;-78
2023/03/29 03:47:16;;;;;;;9.07;5.50;;;;;;;-0.32;76.06;95098.78;6300009;22;20168;-79
2023/03/29 03:49:43;;;;;;;12.23;6.20;;;;;;;-0.31;75.31;95102.09;6298034;22;20192;-79
2023/03/29 03:52:09;;;;;;;10.67;6.80;;;;;;;-0.35;75.80;95093.94;6301665;22;20191;-80
2023/03/29 03:54:38;;;;;;;11.57;6.90;;;;;;;-0.27;74.86;95119.56;6302256;22;20358;-78
2023/03/29 03:57:05;;;;;;;11.00;6.70;;;;;;;-0.27;74.73;95099.16;6304987;22;20172;-78
2023/03/29 03:59:31;;;;;;;15.13;7.10;;;;;;;-0.30;74.60;95101.97;6304041;22;20225;-78
2023/03/29 04:01:59;;;;;;;13.57;6.33;;;;;;;-0.30;73.79;95104.53;6311707;22;20198;-79
2023/03/29 04:04:26;;;;;;;11.33;5.90;;;;;;;-0.34;73.85;95098.09;6318705;22;20168;-81
2023/03/29 04:06:53;;;;;;;7.90;5.23;;;;;;;-0.36;73.43;95107.66;6294314;22;20237;-76
2023/03/29 04:09:21;;;;;;;7.40;4.97;;;;;;;-0.50;73.70;95081.78;6316326;22;20187;-77
2023/03/29 04:11:51;;;;;;;11.20;6.43;;;;;;;-0.33;73.72;95104.00;6314082;22;20217;-77
2023/03/29 04:14:19;;;;;;;10.47;5.70;;;;;;;-0.34;73.03;95108.31;6304590;22;20171;-77
2023/03/29 04:16:46;;;;;;;12.87;5.63;;;;;;;-0.33;72.81;95112.47;6303897;22;20219;-78
2023/03/29 04:19:13;;;;;;;6.20;5.27;;;;;;;-0.36;72.11;95110.19;6305307;22;20784;-78
2023/03/29 04:21:41;;;;;;;8.03;5.33;;;;;;;-0.43;72.97;95118.56;6303227;22;20490;-77
2023/03/29 04:24:08;;;;;;;8.77;5.70;;;;;;;-0.43;72.50;95121.91;6303707;22;20165;-78
2023/03/29 04:26:35;;;;;;;11.63;6.00;;;;;;;-0.43;73.00;95121.13;6303379;22;20175;-78
2023/03/29 04:29:04;;;;;;;11.93;6.27;;;;;;;-0.45;73.54;95128.09;6303948;22;20164;-78
2023/03/29 04:31:31;;;;;;;11.03;5.60;;;;;;;-0.46;72.80;95124.72;6303220;22;20640;-78
2023/03/29 04:33:59;;;;;;;10.50;5.90;;;;;;;-0.44;73.50;95133.06;6301647;22;20164;-78
2023/03/29 04:36:26;;;;;;;9.83;6.43;;;;;;;-0.45;73.56;95128.91;6302255;22;20161;-78
2023/03/29 04:38:52;;;;;;;8.40;5.90;;;;;;;-0.41;72.97;95143.00;6302335;22;20168;-79
2023/03/29 04:41:20;;;;;;;8.30;5.40;;;;;;;-0.38;72.97;95136.81;6304224;22;20165;-78
2023/03/29 04:43:47;;;;;;;8.70;5.57;;;;;;;-0.38;72.81;95135.06;6302151;22;20169;-78
2023/03/29 04:46:15;;;;;;;12.73;6.43;;;;;;;-0.34;72.74;95143.22;6302816;22;20517;-77
2023/03/29 04:48:42;;;;;;;9.17;5.30;;;;;;;-0.32;72.45;95144.72;6302648;22;20164;-77
2023/03/29 04:51:10;;;;;;;10.23;5.77;;;;;;;-0.33;72.41;95145.66;6305081;22;20196;-77
2023/03/29 04:53:37;;;;;;;9.63;6.20;;;;;;;-0.37;72.78;95144.31;6304155;22;20172;-77
2023/03/29 04:56:05;;;;;;;9.13;5.97;;;;;;;-0.28;72.11;95158.81;6302312;22;20175;-77
2023/03/29 04:58:31;;;;;;;8.17;5.57;;;;;;;-0.23;71.48;95148.97;6302015;22;20175;-78
2023/03/29 05:00:58;;;;;;;8.00;5.43;;;;;;;-0.29;71.97;95156.41;6302104;22;20514;-77
2023/03/29 05:03:26;;;;;;;14.13;6.30;;;;;;;-0.25;71.55;95157.72;6301637;22;20171;-78
2023/03/29 05:05:53;;;;;;;9.97;5.83;;;;;;;-0.24;70.83;95149.94;6299594;22;20178;-79
2023/03/29 05:08:20;;;;;;;12.33;7.13;;;;;;;-0.18;71.29;95164.69;6300438;22;20491;-80
2023/03/29 05:10:48;;;;;;;15.07;7.00;;;;;;;-0.16;70.66;95155.13;6300078;22;20203;-79
2023/03/29 05:13:15;;;;;;;11.17;7.00;;;;;;;-0.07;70.41;95169.63;6301037;22;20164;-80
2023/03/29 05:15:42;;;;;;;12.23;7.03;;;;;;;-0.05;69.65;95175.38;6300657;22;20698;-80
2023/03/29 05:18:09;;;;;;;11.40;7.10;;;;;;;0.00;69.67;95168.09;6300504;22;20172;-79
2023/03/29 05:20:39;;;;;;;10.47;6.40;;;;;;;0.01;69.09;95174.00;6301507;22;20186;-80
2023/03/29 05:23:06;;;;;;;13.37;7.10;;;;;;;0.08;68.63;95187.84;6300889;22;20169;-79
2023/03/29 05:25:33;;;;;;;11.63;6.07;;;;;;;0.12;68.36;95180.69;6301726;22;20168;-78
2023/03/29 05:28:00;;;;;;;10.37;6.20;;;;;;;0.08;68.71;95184.47;6299536;22;20176;-78
2023/03/29 05:30:27;;;;;;;13.87;7.10;;;;;;;0.08;68.35;95194.69;6300438;22;20189;-80
2023/03/29 05:32:54;;;;;;;11.83;6.50;;;;;;;0.10;68.87;95178.28;6300184;22;20632;-79
2023/03/29 05:35:22;;;;;;;7.97;5.47;;;;;;;0.10;68.58;95203.03;6302909;22;20172;-80
2023/03/29 05:37:50;;;;;;;10.43;5.50;;;;;;;0.17;68.75;95189.56;6300482;22;20623;-78
2023/03/29 05:40:17;;;;;;;8.00;5.27;;;;;;;0.05;69.66;95182.22;6300259;22;20172;-79
2023/03/29 05:42:44;;;;;;;7.90;5.73;;;;;;;0.04;69.73;95186.50;6300803;22;20176;-79
2023/03/29 05:45:11;;;;;;;7.37;4.57;;;;;;;0.17;68.47;95179.34;6300976;22;20165;-78
2023/03/29 05:47:38;;;;;;;6.17;4.30;;;;;;;0.11;69.29;95191.88;6301924;22;20169;-78
2023/03/29 05:50:08;;;;;;;10.20;4.90;;;;;;;0.09;68.05;95183.56;6300928;22;20224;-81
2023/03/29 05:52:35;;;;;;;8.53;4.40;;;;;;;0.17;68.33;95181.91;6301121;22;20237;-80
2023/03/29 05:55:04;;;;;;;10.63;5.00;;;;;;;0.27;67.97;95192.06;6301279;22;20245;-80
2023/03/29 05:57:31;;;;;;;6.77;5.00;;;;;;;0.25;68.19;95184.53;6302039;22;20173;-77
2023/03/29 05:59:58;;;;;;;10.70;5.27;;;;;;;0.21;68.68;95182.41;6299785;22;20200;-77
2023/03/29 06:02:27;;;;;;;8.77;5.10;;;;;;;0.35;68.30;95192.94;6299127;22;20179;-76
2023/03/29 06:04:54;;;;;;;9.00;5.00;;;;;;;0.28;67.87;95186.81;6299799;22;20662;-78
2023/03/29 06:07:22;;;;;;;6.13;4.23;;;;;;;0.32;66.86;95185.56;6301035;22;20173;-76
2023/03/29 06:09:49;;;;;;;7.53;4.40;;;;;;;0.33;67.66;95186.38;6301911;22;20275;-77
2023/03/29 06:12:18;;;;;;;8.73;5.20;;;;;;;0.49;67.37;95191.69;6300115;22;20170;-78
2023/03/29 06:14:47;;;;;;;9.57;5.47;;;;;;;0.58;66.78;95196.72;6300059;22;20168;-77
2023/03/29 06:17:14;;;;;;;8.07;5.37;;;;;;;0.58;66.37;95206.13;6299845;22;20735;-77
2023/03/29 06:19:41;;;;;;;7.03;5.37;;;;;;;0.63;66.91;95209.09;6302750;22;20205;-79
2023/03/29 06:22:07;;;;;;;6.00;4.10;;;;;;;0.68;66.04;95200.97;6300186;22;20176;-78
2023/03/29 06:24:34;;;;;;;5.60;4.37;;;;;;;0.73;65.38;95211.56;6300035;22;20172;-79
2023/03/29 06:27:01;;;;;;;7.50;4.50;;;;;;;0.76;65.50;95212.09;6300116;22;20509;-77
2023/03/29 06:29:29;;;;;;;7.20;4.30;;;;;;;0.82;65.39;95208.97;6300058;22;20784;-76
2023/03/29 06:31:56;;;;;;;6.67;4.40;;;;;;;0.64;65.46;95205.56;6300780;22;20200;-77
2023/03/29 06:34:23;;;;;;;7.97;4.50;;;;;;;0.66;65.53;95216.47;6298714;22;20664;-77
2023/03/29 06:36:51;;;;;;;6.00;4.40;;;;;;;0.72;66.34;95230.44;6298866;22;20170;-78
2023/03/29 06:39:18;;;;;;;8.33;5.20;;;;;;;0.76;65.70;95224.88;6299322;22;20180;-77
2023/03/29 06:41:45;;;;;;;8.60;5.17;;;;;;;0.85;66.00;95231.69;6301517;22;20623;-77
2023/03/29 06:44:12;;;;;;;14.03;5.43;;;;;;;0.87;64.75;95247.69;6299627;22;20169;-78
2023/03/29 06:46:40;;;;;;;9.13;5.07;;;;;;;0.77;64.74;95241.03;6299969;22;20170;-78
2023/03/29 06:49:07;;;;;;;11.17;5.87;;;;;;;0.83;64.13;95232.78;6299553;22;20240;-78
2023/03/29 06:51:33;;;;;;;7.53;5.80;;;;;;;0.91;63.91;95236.22;6300954;22;20194;-78
2023/03/29 06:54:01;;;;;;;11.20;6.23;;;;;;;1.04;63.03;95249.47;6300348;22;20223;-77
2023/03/29 06:56:28;;;;;;;7.30;4.50;;;;;;;0.99;63.01;95248.28;6299750;22;20201;-77
2023/03/29 06:58:55;;;;;;;10.87;5.30;;;;;;;1.04;62.77;95240.97;6298015;22;20164;-77
2023/03/29 07:01:22;;;;;;;7.43;4.77;;;;;;;1.16;62.00;95247.50;6299424;22;20173;-79
2023/03/29 07:03:50;;;;;;;6.03;4.13;;;;;;;1.29;61.85;95240.28;6301420;22;20176;-79
2023/03/29 07:06:19;;;;;;;7.13;5.07;;;;;;;1.34;62.21;95242.38;6300072;22;20175;-80
2023/03/29 07:08:51;;;;;;;8.73;3.70;;;;;;;1.39;61.15;95240.19;6300092;22;20458;-80
2023/03/29 07:11:19;;;;;;;8.63;3.17;;;;;;;1.25;60.56;95243.25;6300214;22;20175;-79
2023/03/29 07:13:47;;;;;;;4.43;3.30;;;;;;;1.27;61.21;95244.72;6300774;22;20166;-80
2023/03/29 07:16:15;;;;;;;6.33;3.70;;;;;;;1.29;61.25;95239.47;6300588;22;20277;-79
2023/03/29 07:18:43;;;;;;;7.33;3.80;;;;;;;1.34;60.84;95234.69;6301016;22;20152;-81
2023/03/29 07:21:12;;;;;;;7.03;3.43;;;;;;;1.42;60.18;95250.13;6299926;22;20171;-81
2023/03/29 07:23:39;;;;;;;5.77;3.67;;;;;;;1.53;59.64;95257.59;6300070;22;20183;-80
2023/03/29 07:26:07;;;;;;;4.37;3.37;;;;;;;1.70;59.39;95254.22;6301499;22;20172;-81
2023/03/29 07:28:36;;;;;;;6.23;4.13;;;;;;;1.70;59.84;95251.66;6300147;22;20550;-80
2023/03/29 07:31:05;;;;;;;4.00;3.20;;;;;;;1.73;58.85;95259.03;6300152;22;20191;-80
2023/03/29 07:33:33;;;;;;;4.40;3.00;;;;;;;1.71;58.89;95256.63;6299954;22;20163;-80
2023/03/29 07:36:00;;;;;;;7.53;3.53;;;;;;;1.66;58.79;95238.34;6300879;22;20249;-80
2023/03/29 07:38:29;;;;;;;12.70;4.13;;;;;;;1.78;58.81;95251.72;6301669;22;20168;-81
2023/03/29 07:40:56;;;;;;;8.30;4.60;;;;;;;1.78;58.37;95261.94;6299768;22;20631;-80
2023/03/29 07:43:24;;;;;;;9.73;4.90;;;;;;;1.81;58.13;95258.28;6300747;22;20172;-81
2023/03/29 07:45:51;;;;;;;10.07;5.73;;;;;;;1.96;57.30;95259.34;6299640;22;20209;-80
2023/03/29 07:48:18;;;;;;;7.13;4.03;;;;;;;1.93;57.51;95245.09;6301454;22;20171;-82
2023/03/29 07:50:45;;;;;;;8.80;4.80;;;;;;;2.01;57.42;95252.00;6300834;22;20260;-83
2023/03/29 07:53:12;;;;;;;5.57;3.27;;;;;;;2.10;56.37;95253.69;6301138;22;20198;-84
2023/03/29 07:55:45;;;;;;;4.93;2.70;;;;;;;1.95;56.97;95248.31;6300692;22;20202;-82
2023/03/29 07:58:13;;;;;;;4.17;2.80;;;;;;;1.88;57.17;95246.47;6299821;22;20235;-82
2023/03/29 08:00:40;;;;;;;7.23;3.30;;;;;;;1.97;58.09;95236.13;6299903;22;20222;-83
2023/03/29 08:03:07;;;;;;;5.47;3.37;;;;;;;2.11;57.04;95227.88;6299416;22;20167;-83
2023/03/29 08:05:34;;;;;;;7.10;3.63;;;;;;;2.34;55.71;95230.72;6301301;22;20518;-82
2023/03/29 08:08:00;;;;;;;4.77;3.03;;;;;;;2.42;56.88;95235.91;6300556;22;20181;-84
2023/03/29 08:10:27;;;;;;;4.10;3.07;;;;;;;2.51;55.45;95224.69;6301601;22;20693;-82
2023/03/29 08:12:56;;;;;;;4.53;3.00;;;;;;;2.59;54.86;95227.31;6300780;22;20604;-83
2023/03/29 08:15:23;;;;;;;3.33;2.70;;;;;;;2.60;54.38;95220.41;6300984;22;20198;-81
2023/03/29 08:17:50;;;;;;;7.00;3.73;;;;;;;2.78;54.60;95228.81;6300701;22;20199;-82
2023/03/29 08:20:17;;;;;;;8.20;4.50;;;;;;;2.87;54.18;95233.00;6302271;22;20183;-82
2023/03/29 08:22:44;;;;;;;5.40;3.50;;;;;;;2.92;54.03;95228.19;6302154;22;20168;-83
2023/03/29 08:25:12;;;;;;;5.43;3.23;;;;;;;2.70;54.65;95228.78;6300709;22;20168;-83
2023/03/29 08:27:38;;;;;;;6.43;4.10;;;;;;;2.54;55.22;95214.13;6301262;22;20225;-84
2023/03/29 08:30:08;;;;;;;6.43;3.23;;;;;;;2.52;55.17;95216.06;6301167;22;20168;-83
2023/03/29 08:32:36;;;;;;;8.87;4.30;;;;;;;2.70;55.35;95221.91;6302401;22;20498;-84
2023/03/29 08:35:03;;;;;;;9.30;4.93;;;;;;;2.85;56.05;95229.78;6301539;22;20168;-84
2023/03/29 08:37:31;;;;;;;5.80;3.53;;;;;;;2.81;54.04;95213.09;6301417;22;20169;-79
2023/03/29 08:39:58;;;;;;;9.03;4.90;;;;;;;2.84;54.00;95205.91;6301120;22;20167;-79
2023/03/29 08:43:02;;;;;;;5.43;3.27;;;;;;;2.97;51.62;95225.19;6302937;22;20190;-79
2023/03/29 08:45:38;;;;;;;5.20;2.87;;;;;;;3.08;48.97;95222.31;6304964;22;20190;-80
2023/03/29 08:48:16;;;;;;;5.17;2.87;;;;;;;3.13;45.72;95208.03;6306715;22;20234;-80
2023/03/29 08:50:47;;;;;;;5.63;3.33;;;;;;;3.32;46.72;95222.31;6302964;22;20183;-76
2023/03/29 08:53:20;;;;;;;5.20;2.80;;;;;;;3.39;45.83;95205.31;6299925;22;20192;-77
2023/03/29 08:55:50;;;;;;;6.10;2.73;;;;;;;3.38;45.65;95212.22;6299887;22;20164;-77
2023/03/29 08:58:20;;;;;;;9.87;3.60;;;;;;;3.37;45.47;95220.09;6301972;22;20168;-77
2023/03/29 09:00:51;;;;;;;5.00;2.70;;;;;;;3.40;45.67;95215.44;6302098;22;20278;-76
2023/03/29 09:03:22;;;;;;;7.47;2.87;;;;;;;3.52;45.91;95215.91;6300388;22;20156;-75
2023/03/29 09:05:55;;;;;;;4.30;2.80;;;;;;;3.57;46.09;95194.88;6300277;22;20153;-76
2023/03/29 09:08:23;;;;;;;6.43;2.83;;;;;;;3.72;45.95;95195.84;6300311;22;20160;-78
2023/03/29 09:11:03;;;;;;;5.20;3.00;;;;;;;3.76;45.94;95179.13;6302272;22;20206;-77
2023/03/29 09:13:39;;;;;;;4.00;2.80;;;;;;;4.10;45.99;95189.97;6303067;22;20289;-78
2023/03/29 09:16:17;;;;;;;6.10;3.37;;;;;;;4.31;45.25;95215.16;6300756;22;20640;-77
2023/03/29 09:18:56;;;;;;;5.70;3.20;;;;;;;4.41;43.23;95193.44;6303495;22;20543;-78
2023/03/29 09:21:30;;;;;;;4.17;2.80;;;;;;;4.55;43.49;95192.72;6295940;22;20164;-77
2023/03/29 09:24:15;;;;;;;4.43;2.90;;;;;;;4.65;42.88;95196.88;6299709;22;20173;-77
2023/03/29 09:26:47;;;;;;;7.40;4.13;;;;;;;4.90;43.35;95201.72;6301289;22;20246;-79
2023/03/29 09:29:39;;;;;;;6.73;3.17;;;;;;;4.88;41.92;95195.91;6301676;22;20164;-77
2023/03/29 09:32:19;;;;;;;5.77;3.23;;;;;;;4.99;40.45;95192.19;6275546;22;20268;-77
2023/03/29 09:34:53;;;;;;;6.37;2.93;;;;;;;5.13;40.68;95170.84;6300617;22;20710;-76
2023/03/29 09:37:25;;;;;;;6.70;2.63;;;;;;;5.42;39.92;95208.78;6298165;22;20163;-77
2023/03/29 09:39:54;;;;;;;4.63;2.77;;;;;;;5.36;35.54;95201.75;6298998;22;20157;-77
2023/03/29 09:42:22;;;;;;;5.00;2.70;;;;;;;5.50;38.04;95191.47;6300750;22;20173;-77
2023/03/29 09:44:53;;;;;;;5.90;2.73;;;;;;;5.81;38.44;95199.09;6298272;22;20166;-77
2023/03/29 09:47:26;;;;;;;4.13;2.50;;;;;;;5.92;36.03;95201.28;6298246;22;20156;-77
2023/03/29 09:49:57;;;;;;;6.20;3.30;;;;;;;6.09;35.59;95223.38;6298235;22;20253;-77
2023/03/29 09:52:24;;;;;;;4.47;2.50;;;;;;;6.21;34.00;95191.00;6298171;22;20207;-78
2023/03/29 09:54:52;;;;;;;3.33;2.43;;;;;;;6.20;34.16;95207.44;6299795;22;20187;-78
2023/03/29 09:57:20;;;;;;;7.00;2.57;;;;;;;6.25;33.91;95205.16;6298697;22;20168;-77
2023/03/29 09:59:50;;;;;;;4.97;2.77;;;;;;;6.42;34.45;95198.03;6297375;22;20206;-77
2023/03/29 10:02:21;;;;;;;3.33;2.43;;;;;;;6.56;33.89;95204.97;6297619;22;20152;-77
2023/03/29 10:04:57;;;;;;;7.73;2.63;;;;;;;6.61;34.78;95191.53;6299269;22;20156;-76
2023/03/29 10:07:34;;;;;;;2.93;2.20;;;;;;;6.43;33.96;95175.59;6298870;22;20812;-76
2023/03/29 10:10:01;;;;;;;5.23;2.60;;;;;;;6.65;34.16;95185.00;6297577;22;20156;-76
2023/03/29 10:12:28;;;;;;;4.43;2.63;;;;;;;6.69;34.36;95187.06;6297022;22;20192;-76
2023/03/29 10:14:55;;;;;;;4.33;2.20;;;;;;;7.02;34.48;95181.44;6297435;22;20168;-77
2023/03/29 10:17:26;;;;;;;3.87;1.87;;;;;;;7.39;35.42;95181.22;6299121;22;20200;-80
2023/03/29 10:19:57;;;;;;;5.53;2.93;;;;;;;7.60;32.97;95176.03;6299700;22;20692;-76
2023/03/29 10:22:27;;;;;;;4.33;2.97;;;;;;;7.67;33.91;95181.28;6298284;22;20585;-77
2023/03/29 10:24:57;;;;;;;4.00;2.47;;;;;;;7.37;31.04;95181.41;6297853;22;20627;-77
2023/03/29 10:27:27;;;;;;;13.00;2.87;;;;;;;7.57;31.38;95186.75;6298052;22;20527;-76
2023/03/29 10:29:55;;;;;;;4.13;2.27;;;;;;;7.51;32.01;95174.56;6299569;22;20191;-77
2023/03/29 10:32:30;;;;;;;4.77;2.57;;;;;;;7.75;32.54;95160.44;6297038;22;20535;-76
2023/03/29 10:35:02;;;;;;;5.47;3.00;;;;;;;7.89;31.51;95162.94;6297571;22;20514;-76
2023/03/29 10:37:29;;;;;;;5.77;2.20;;;;;;;7.50;31.34;95175.59;6298019;22;20191;-75
2023/03/29 10:39:56;;;;;;;15.23;3.80;;;;;;;7.64;31.47;95155.78;6298375;22;20175;-76
2023/03/29 10:42:25;;;;;;;7.37;3.47;;;;;;;7.81;31.69;95180.41;6299278;22;20164;-76
2023/03/29 10:44:54;;;;;;;5.27;1.97;;;;;;;7.58;29.86;95153.94;6298177;22;20176;-76
2023/03/29 10:47:21;;;;;;;3.97;2.47;;;;;;;7.67;31.72;95151.03;6297149;22;20172;-76
2023/03/29 10:49:53;;;;;;;8.13;3.63;;;;;;;8.03;32.03;95148.28;6296557;22;20573;-77
2023/03/29 10:52:21;;;;;;;5.27;3.03;;;;;;;8.27;32.01;95142.69;6297279;22;20234;-78
2023/03/29 10:54:51;;;;;;;6.00;2.77;;;;;;;8.35;31.26;95168.44;6299876;22;20172;-77
2023/03/29 10:57:26;;;;;;;4.10;2.60;;;;;;;8.66;29.85;95160.19;6297920;22;20699;-78
2023/03/29 11:00:01;;;;;;;5.23;3.07;;;;;;;8.72;29.39;95137.91;6298717;22;20832;-76
2023/03/29 11:02:51;;;;;;;5.83;2.80;;;;;;;8.73;30.00;95137.72;6298548;22;20152;-77
2023/03/29 11:05:35;;;;;;;5.87;3.00;;;;;;;9.16;29.77;95148.59;6297545;22;20801;-76
2023/03/29 11:08:18;;;;;;;5.10;2.83;;;;;;;9.16;29.23;95140.00;6298996;22;20175;-77
2023/03/29 11:10:55;;;;;;;4.97;2.67;;;;;;;9.24;28.58;95142.41;6299041;22;20153;-77
2023/03/29 11:13:34;;;;;;;5.10;2.80;;;;;;;9.51;28.84;95138.88;6297572;22;20677;-76
2023/03/29 11:16:11;;;;;;;6.40;3.00;;;;;;;9.99;28.90;95136.84;6297497;22;20153;-76
2023/03/29 11:19:03;;;;;;;2.80;2.00;;;;;;;10.07;27.13;95147.81;6297250;22;20164;-78
2023/03/29 11:21:42;;;;;;;5.23;2.53;;;;;;;9.60;27.68;95122.09;6297014;22;20239;-76
2023/03/29 11:24:26;;;;;;;8.27;2.80;;;;;;;9.77;28.65;95138.88;6297572;22;20160;-77
2023/03/29 11:27:08;;;;;;;5.13;2.60;;;;;;;9.85;28.35;95148.22;6299070;22;20710;-76
2023/03/29 11:29:43;;;;;;;3.30;2.60;;;;;;;9.94;28.18;95129.66;6298644;22;20156;-77
2023/03/29 11:32:15;;;;;;;3.97;2.27;;;;;;;9.68;28.07;95137.47;6296994;22;20894;-78
2023/03/29 11:34:58;;;;;;;5.87;2.90;;;;;;;10.06;28.17;95148.81;6297090;22;20160;-79
2023/03/29 11:37:42;;;;;;;5.27;2.67;;;;;;;10.27;27.70;95135.59;6297799;22;20159;-80
2023/03/29 11:40:25;;;;;;;4.93;2.23;;;;;;;10.11;27.73;95130.03;6297698;22;20156;-76
2023/03/29 11:42:55;;;;;;;6.93;3.35;;;;;;;9.91;28.16;95127.47;6298723;22;20898;-77
2023/03/29 11:45:33;;;;;;;4.30;2.60;;;;;;;9.94;27.64;95136.66;6301849;22;20157;-77
2023/03/29 11:48:02;;;;;;;4.00;2.37;;;;;;;9.69;27.80;95121.72;6302570;22;20244;-77
2023/03/29 11:50:40;;;;;;;6.47;2.53;;;;;;;9.50;27.88;95121.69;6301234;22;20616;-77